sensor_id;sensor_type;location;lat;lon;timestamp;P1;durP1;ratioP1;P2;durP2;ratioP2
21894;SDS011;11112;51.270;7.224;2023-07-31T00:01:19;7.90;;;2.97;;
21894;SDS011;11112;51.270;7.224;2023-07-31T00:03:47;8.48;;;2.92;;
21894;SDS011;11112;51.270;7.224;2023-07-31T00:06:15;7.18;;;3.10;;
21894;SDS011;11112;51.270;7.224;2023-07-31T00:08:42;7.80;;;2.92;;
21894;SDS011;11112;51.270;7.224;2023-07-31T00:11:09;10.07;;;3.20;;
21894;SDS011;11112;51.270;7.224;2023-07-31T00:13:36;9.48;;;3.33;;
21894;SDS011;11112;51.270;7.224;2023-07-31T00:16:03;7.45;;;2.67;;
21894;SDS011;11112;51.270;7.224;2023-07-31T00:18:30;6.68;;;2.80;;
21894;SDS011;11112;51.270;7.224;2023-07-31T00:20:59;6.85;;;3.05;;
21894;SDS011;11112;51.270;7.224;2023-07-31T00:23:26;7.75;;;2.80;;
21894;SDS011;11112;51.270;7.224;2023-07-31T00:25:53;6.80;;;2.78;;
21894;SDS011;11112;51.270;7.224;2023-07-31T00:28:20;9.07;;;3.40;;
21894;SDS011;11112;51.270;7.224;2023-07-31T00:30:47;8.10;;;3.33;;
21894;SDS011;11112;51.270;7.224;2023-07-31T00:33:14;9.32;;;3.20;;
21894;SDS011;11112;51.270;7.224;2023-07-31T00:35:41;8.43;;;2.80;;
21894;SDS011;11112;51.270;7.224;2023-07-31T00:38:09;8.10;;;3.20;;
21894;SDS011;11112;51.270;7.224;2023-07-31T00:40:36;8.95;;;3.20;;
21894;SDS011;11112;51.270;7.224;2023-07-31T00:43:03;8.45;;;3.20;;
21894;SDS011;11112;51.270;7.224;2023-07-31T00:45:31;7.80;;;3.20;;
21894;SDS011;11112;51.270;7.224;2023-07-31T00:47:58;12.32;;;3.65;;
21894;SDS011;11112;51.270;7.224;2023-07-31T00:50:26;9.38;;;3.58;;
21894;SDS011;11112;51.270;7.224;2023-07-31T00:52:54;9.68;;;3.50;;
21894;SDS011;11112;51.270;7.224;2023-07-31T00:55:22;6.40;;;3.08;;
21894;SDS011;11112;51.270;7.224;2023-07-31T00:57:50;8.10;;;3.03;;
21894;SDS011;11112;51.270;7.224;2023-07-31T01:00:20;7.90;;;3.10;;
21894;SDS011;11112;51.270;7.224;2023-07-31T01:02:48;9.40;;;3.20;;
21894;SDS011;11112;51.270;7.224;2023-07-31T01:05:16;6.95;;;3.30;;
21894;SDS011;11112;51.270;7.224;2023-07-31T01:07:56;10.10;;;3.35;;
21894;SDS011;11112;51.270;7.224;2023-07-31T01:10:33;9.23;;;3.53;;
21894;SDS011;11112;51.270;7.224;2023-07-31T01:13:07;12.10;;;3.50;;
21894;SDS011;11112;51.270;7.224;2023-07-31T01:15:36;7.80;;;3.15;;
21894;SDS011;11112;51.270;7.224;2023-07-31T01:18:03;8.93;;;3.22;;
21894;SDS011;11112;51.270;7.224;2023-07-31T01:20:30;10.10;;;3.70;;
21894;SDS011;11112;51.270;7.224;2023-07-31T01:23:15;8.10;;;3.10;;
21894;SDS011;11112;51.270;7.224;2023-07-31T01:26:05;10.70;;;3.30;;
21894;SDS011;11112;51.270;7.224;2023-07-31T01:28:40;9.65;;;3.03;;
21894;SDS011;11112;51.270;7.224;2023-07-31T01:31:20;7.28;;;2.97;;
21894;SDS011;11112;51.270;7.224;2023-07-31T01:33:50;9.10;;;3.38;;
21894;SDS011;11112;51.270;7.224;2023-07-31T01:36:21;10.43;;;3.13;;
21894;SDS011;11112;51.270;7.224;2023-07-31T01:38:48;10.57;;;3.20;;
21894;SDS011;11112;51.270;7.224;2023-07-31T01:41:17;8.55;;;3.30;;
21894;SDS011;11112;51.270;7.224;2023-07-31T01:43:44;9.25;;;3.28;;
21894;SDS011;11112;51.270;7.224;2023-07-31T01:46:12;8.75;;;3.00;;
21894;SDS011;11112;51.270;7.224;2023-07-31T01:48:39;12.23;;;3.70;;
21894;SDS011;11112;51.270;7.224;2023-07-31T01:51:06;9.52;;;3.22;;
21894;SDS011;11112;51.270;7.224;2023-07-31T01:53:33;10.10;;;3.33;;
21894;SDS011;11112;51.270;7.224;2023-07-31T01:56:00;13.07;;;3.50;;
21894;SDS011;11112;51.270;7.224;2023-07-31T01:58:28;8.73;;;3.47;;
21894;SDS011;11112;51.270;7.224;2023-07-31T02:00:55;8.63;;;3.28;;
21894;SDS011;11112;51.270;7.224;2023-07-31T02:03:22;7.50;;;3.10;;
21894;SDS011;11112;51.270;7.224;2023-07-31T02:05:49;11.20;;;3.30;;
21894;SDS011;11112;51.270;7.224;2023-07-31T02:08:16;10.38;;;3.88;;
21894;SDS011;11112;51.270;7.224;2023-07-31T02:10:43;11.10;;;3.40;;
21894;SDS011;11112;51.270;7.224;2023-07-31T02:13:10;10.75;;;3.20;;
21894;SDS011;11112;51.270;7.224;2023-07-31T02:15:39;10.00;;;3.42;;
21894;SDS011;11112;51.270;7.224;2023-07-31T02:18:06;11.25;;;3.70;;
21894;SDS011;11112;51.270;7.224;2023-07-31T02:20:33;9.55;;;3.47;;
21894;SDS011;11112;51.270;7.224;2023-07-31T02:25:29;9.63;;;3.20;;
21894;SDS011;11112;51.270;7.224;2023-07-31T02:27:56;10.40;;;3.65;;
21894;SDS011;11112;51.270;7.224;2023-07-31T02:30:23;9.02;;;3.95;;
21894;SDS011;11112;51.270;7.224;2023-07-31T02:32:51;11.18;;;3.60;;
21894;SDS011;11112;51.270;7.224;2023-07-31T02:35:18;11.18;;;3.38;;
21894;SDS011;11112;51.270;7.224;2023-07-31T02:37:45;10.73;;;3.40;;
21894;SDS011;11112;51.270;7.224;2023-07-31T02:40:13;8.73;;;3.28;;
21894;SDS011;11112;51.270;7.224;2023-07-31T02:42:40;11.73;;;3.55;;
21894;SDS011;11112;51.270;7.224;2023-07-31T02:45:07;9.73;;;3.47;;
21894;SDS011;11112;51.270;7.224;2023-07-31T02:47:35;9.88;;;3.80;;
21894;SDS011;11112;51.270;7.224;2023-07-31T02:50:04;8.43;;;3.42;;
21894;SDS011;11112;51.270;7.224;2023-07-31T02:52:32;8.15;;;3.35;;
21894;SDS011;11112;51.270;7.224;2023-07-31T02:54:59;9.27;;;3.40;;
21894;SDS011;11112;51.270;7.224;2023-07-31T02:57:26;10.48;;;3.72;;
21894;SDS011;11112;51.270;7.224;2023-07-31T02:59:53;11.45;;;3.58;;
21894;SDS011;11112;51.270;7.224;2023-07-31T03:02:20;11.23;;;3.50;;
21894;SDS011;11112;51.270;7.224;2023-07-31T03:04:47;10.52;;;3.20;;
21894;SDS011;11112;51.270;7.224;2023-07-31T03:07:15;11.45;;;3.58;;
21894;SDS011;11112;51.270;7.224;2023-07-31T03:09:42;9.52;;;3.50;;
21894;SDS011;11112;51.270;7.224;2023-07-31T03:12:09;10.52;;;3.47;;
21894;SDS011;11112;51.270;7.224;2023-07-31T03:14:36;10.43;;;3.45;;
21894;SDS011;11112;51.270;7.224;2023-07-31T03:17:03;9.68;;;3.28;;
21894;SDS011;11112;51.270;7.224;2023-07-31T03:19:31;11.95;;;3.70;;
21894;SDS011;11112;51.270;7.224;2023-07-31T03:21:58;8.43;;;3.20;;
21894;SDS011;11112;51.270;7.224;2023-07-31T03:24:27;8.25;;;3.28;;
21894;SDS011;11112;51.270;7.224;2023-07-31T03:26:55;10.95;;;3.47;;
21894;SDS011;11112;51.270;7.224;2023-07-31T03:29:22;9.68;;;3.42;;
21894;SDS011;11112;51.270;7.224;2023-07-31T03:31:49;8.75;;;3.35;;
21894;SDS011;11112;51.270;7.224;2023-07-31T03:34:16;8.65;;;3.33;;
21894;SDS011;11112;51.270;7.224;2023-07-31T03:36:44;10.05;;;3.28;;
21894;SDS011;11112;51.270;7.224;2023-07-31T03:39:11;11.25;;;3.78;;
21894;SDS011;11112;51.270;7.224;2023-07-31T03:41:39;8.23;;;3.30;;
21894;SDS011;11112;51.270;7.224;2023-07-31T03:44:06;8.45;;;3.55;;
21894;SDS011;11112;51.270;7.224;2023-07-31T03:46:33;9.80;;;3.58;;
21894;SDS011;11112;51.270;7.224;2023-07-31T03:49:01;7.38;;;3.45;;
21894;SDS011;11112;51.270;7.224;2023-07-31T03:51:28;10.70;;;3.28;;
21894;SDS011;11112;51.270;7.224;2023-07-31T03:53:55;9.43;;;3.60;;
21894;SDS011;11112;51.270;7.224;2023-07-31T03:56:22;8.35;;;3.47;;
21894;SDS011;11112;51.270;7.224;2023-07-31T03:58:50;10.45;;;3.67;;
21894;SDS011;11112;51.270;7.224;2023-07-31T04:01:18;9.13;;;3.40;;
21894;SDS011;11112;51.270;7.224;2023-07-31T04:03:46;11.95;;;3.75;;
21894;SDS011;11112;51.270;7.224;2023-07-31T04:06:13;10.20;;;3.65;;
21894;SDS011;11112;51.270;7.224;2023-07-31T04:08:43;8.95;;;3.28;;
21894;SDS011;11112;51.270;7.224;2023-07-31T04:11:10;11.13;;;3.33;;
21894;SDS011;11112;51.270;7.224;2023-07-31T04:13:37;12.77;;;3.65;;
21894;SDS011;11112;51.270;7.224;2023-07-31T04:16:06;10.15;;;3.63;;
21894;SDS011;11112;51.270;7.224;2023-07-31T04:18:33;10.18;;;3.75;;
21894;SDS011;11112;51.270;7.224;2023-07-31T04:21:00;11.48;;;3.78;;
21894;SDS011;11112;51.270;7.224;2023-07-31T04:23:27;12.07;;;3.30;;
21894;SDS011;11112;51.270;7.224;2023-07-31T04:25:55;11.52;;;3.70;;
21894;SDS011;11112;51.270;7.224;2023-07-31T04:28:22;8.98;;;3.45;;
21894;SDS011;11112;51.270;7.224;2023-07-31T04:30:51;9.18;;;3.42;;
21894;SDS011;11112;51.270;7.224;2023-07-31T04:33:19;11.18;;;3.45;;
21894;SDS011;11112;51.270;7.224;2023-07-31T04:35:48;11.75;;;3.72;;
21894;SDS011;11112;51.270;7.224;2023-07-31T04:38:18;9.80;;;3.53;;
21894;SDS011;11112;51.270;7.224;2023-07-31T04:40:45;8.57;;;3.47;;
21894;SDS011;11112;51.270;7.224;2023-07-31T04:43:12;9.52;;;3.42;;
21894;SDS011;11112;51.270;7.224;2023-07-31T04:45:42;9.48;;;3.70;;
21894;SDS011;11112;51.270;7.224;2023-07-31T04:48:11;11.05;;;4.00;;
21894;SDS011;11112;51.270;7.224;2023-07-31T04:50:40;8.23;;;3.45;;
21894;SDS011;11112;51.270;7.224;2023-07-31T04:53:07;9.43;;;3.70;;
21894;SDS011;11112;51.270;7.224;2023-07-31T04:55:34;9.63;;;3.50;;
21894;SDS011;11112;51.270;7.224;2023-07-31T04:58:01;10.00;;;3.60;;
21894;SDS011;11112;51.270;7.224;2023-07-31T05:00:28;10.40;;;3.75;;
21894;SDS011;11112;51.270;7.224;2023-07-31T05:02:55;11.85;;;4.03;;
21894;SDS011;11112;51.270;7.224;2023-07-31T05:05:22;10.82;;;4.30;;
21894;SDS011;11112;51.270;7.224;2023-07-31T05:07:51;9.95;;;3.95;;
21894;SDS011;11112;51.270;7.224;2023-07-31T05:10:18;12.43;;;4.35;;
21894;SDS011;11112;51.270;7.224;2023-07-31T05:12:45;13.43;;;4.15;;
21894;SDS011;11112;51.270;7.224;2023-07-31T05:15:12;9.32;;;4.22;;
21894;SDS011;11112;51.270;7.224;2023-07-31T05:17:39;9.80;;;3.88;;
21894;SDS011;11112;51.270;7.224;2023-07-31T05:20:07;10.13;;;4.00;;
21894;SDS011;11112;51.270;7.224;2023-07-31T05:22:35;10.63;;;3.80;;
21894;SDS011;11112;51.270;7.224;2023-07-31T05:25:04;10.70;;;4.03;;
21894;SDS011;11112;51.270;7.224;2023-07-31T05:27:32;10.10;;;3.92;;
21894;SDS011;11112;51.270;7.224;2023-07-31T05:29:59;13.55;;;3.72;;
21894;SDS011;11112;51.270;7.224;2023-07-31T05:32:26;10.35;;;4.28;;
21894;SDS011;11112;51.270;7.224;2023-07-31T05:34:53;9.25;;;4.05;;
21894;SDS011;11112;51.270;7.224;2023-07-31T05:37:20;7.78;;;3.90;;
21894;SDS011;11112;51.270;7.224;2023-07-31T05:39:47;8.43;;;3.45;;
21894;SDS011;11112;51.270;7.224;2023-07-31T05:42:17;9.18;;;4.05;;
21894;SDS011;11112;51.270;7.224;2023-07-31T05:44:44;8.95;;;3.63;;
21894;SDS011;11112;51.270;7.224;2023-07-31T05:47:12;10.05;;;3.90;;
21894;SDS011;11112;51.270;7.224;2023-07-31T05:49:39;8.70;;;3.88;;
21894;SDS011;11112;51.270;7.224;2023-07-31T05:52:06;7.70;;;3.78;;
21894;SDS011;11112;51.270;7.224;2023-07-31T05:54:33;9.75;;;3.88;;
21894;SDS011;11112;51.270;7.224;2023-07-31T05:57:00;10.43;;;3.90;;
21894;SDS011;11112;51.270;7.224;2023-07-31T05:59:29;8.00;;;3.67;;
21894;SDS011;11112;51.270;7.224;2023-07-31T06:01:58;8.38;;;3.80;;
21894;SDS011;11112;51.270;7.224;2023-07-31T06:04:25;9.68;;;3.80;;
21894;SDS011;11112;51.270;7.224;2023-07-31T06:06:52;9.85;;;4.20;;
21894;SDS011;11112;51.270;7.224;2023-07-31T06:09:19;8.20;;;3.75;;
21894;SDS011;11112;51.270;7.224;2023-07-31T06:11:46;8.20;;;3.80;;
21894;SDS011;11112;51.270;7.224;2023-07-31T06:14:13;7.85;;;3.80;;
21894;SDS011;11112;51.270;7.224;2023-07-31T06:16:42;7.90;;;4.05;;
21894;SDS011;11112;51.270;7.224;2023-07-31T06:19:10;10.32;;;3.97;;
21894;SDS011;11112;51.270;7.224;2023-07-31T06:21:37;10.32;;;4.30;;
21894;SDS011;11112;51.270;7.224;2023-07-31T06:24:07;11.95;;;4.10;;
21894;SDS011;11112;51.270;7.224;2023-07-31T06:26:34;10.90;;;3.88;;
21894;SDS011;11112;51.270;7.224;2023-07-31T06:29:01;8.50;;;3.65;;
21894;SDS011;11112;51.270;7.224;2023-07-31T06:31:28;9.60;;;4.10;;
21894;SDS011;11112;51.270;7.224;2023-07-31T06:33:56;8.73;;;4.13;;
21894;SDS011;11112;51.270;7.224;2023-07-31T06:36:23;10.07;;;4.18;;
21894;SDS011;11112;51.270;7.224;2023-07-31T06:38:50;7.78;;;3.95;;
21894;SDS011;11112;51.270;7.224;2023-07-31T06:41:18;9.00;;;3.83;;
21894;SDS011;11112;51.270;7.224;2023-07-31T06:43:45;8.38;;;3.42;;
21894;SDS011;11112;51.270;7.224;2023-07-31T06:46:12;11.48;;;3.63;;
21894;SDS011;11112;51.270;7.224;2023-07-31T06:48:39;7.57;;;3.60;;
21894;SDS011;11112;51.270;7.224;2023-07-31T06:51:07;9.77;;;3.85;;
21894;SDS011;11112;51.270;7.224;2023-07-31T06:53:34;8.05;;;3.75;;
21894;SDS011;11112;51.270;7.224;2023-07-31T06:56:01;7.80;;;3.72;;
21894;SDS011;11112;51.270;7.224;2023-07-31T06:58:29;7.65;;;3.35;;
21894;SDS011;11112;51.270;7.224;2023-07-31T07:00:56;7.93;;;3.83;;
21894;SDS011;11112;51.270;7.224;2023-07-31T07:03:23;6.93;;;4.05;;
21894;SDS011;11112;51.270;7.224;2023-07-31T07:05:50;8.60;;;3.75;;
21894;SDS011;11112;51.270;7.224;2023-07-31T07:08:19;6.85;;;3.63;;
21894;SDS011;11112;51.270;7.224;2023-07-31T07:10:46;8.18;;;3.72;;
21894;SDS011;11112;51.270;7.224;2023-07-31T07:13:13;7.60;;;3.58;;
21894;SDS011;11112;51.270;7.224;2023-07-31T07:15:40;7.10;;;3.63;;
21894;SDS011;11112;51.270;7.224;2023-07-31T07:18:07;6.82;;;3.30;;
21894;SDS011;11112;51.270;7.224;2023-07-31T07:20:35;11.93;;;3.58;;
21894;SDS011;11112;51.270;7.224;2023-07-31T07:23:02;9.18;;;3.92;;
21894;SDS011;11112;51.270;7.224;2023-07-31T07:25:31;8.05;;;3.53;;
21894;SDS011;11112;51.270;7.224;2023-07-31T07:27:58;8.10;;;3.75;;
21894;SDS011;11112;51.270;7.224;2023-07-31T07:30:26;7.90;;;3.40;;
21894;SDS011;11112;51.270;7.224;2023-07-31T07:32:53;7.93;;;3.88;;
21894;SDS011;11112;51.270;7.224;2023-07-31T07:35:20;8.35;;;4.03;;
21894;SDS011;11112;51.270;7.224;2023-07-31T07:37:48;8.80;;;3.67;;
21894;SDS011;11112;51.270;7.224;2023-07-31T07:40:16;7.72;;;3.70;;
21894;SDS011;11112;51.270;7.224;2023-07-31T07:42:44;6.28;;;3.40;;
21894;SDS011;11112;51.270;7.224;2023-07-31T07:45:11;8.73;;;3.90;;
21894;SDS011;11112;51.270;7.224;2023-07-31T07:47:40;8.68;;;3.60;;
21894;SDS011;11112;51.270;7.224;2023-07-31T07:50:07;8.20;;;3.45;;
21894;SDS011;11112;51.270;7.224;2023-07-31T07:52:35;7.35;;;3.50;;
21894;SDS011;11112;51.270;7.224;2023-07-31T07:55:02;7.57;;;3.95;;
21894;SDS011;11112;51.270;7.224;2023-07-31T07:57:31;7.35;;;4.15;;
21894;SDS011;11112;51.270;7.224;2023-07-31T07:59:59;7.18;;;3.50;;
21894;SDS011;11112;51.270;7.224;2023-07-31T08:02:26;7.32;;;3.38;;
21894;SDS011;11112;51.270;7.224;2023-07-31T08:04:53;7.13;;;3.30;;
21894;SDS011;11112;51.270;7.224;2023-07-31T08:07:20;6.35;;;3.00;;
21894;SDS011;11112;51.270;7.224;2023-07-31T08:09:47;6.78;;;3.50;;
21894;SDS011;11112;51.270;7.224;2023-07-31T08:12:14;6.43;;;3.03;;
21894;SDS011;11112;51.270;7.224;2023-07-31T08:14:41;7.82;;;3.30;;
21894;SDS011;11112;51.270;7.224;2023-07-31T08:17:10;5.63;;;3.08;;
21894;SDS011;11112;51.270;7.224;2023-07-31T08:19:37;6.10;;;3.05;;
21894;SDS011;11112;51.270;7.224;2023-07-31T08:22:04;6.25;;;2.92;;
21894;SDS011;11112;51.270;7.224;2023-07-31T08:24:31;5.07;;;2.55;;
21894;SDS011;11112;51.270;7.224;2023-07-31T08:26:58;5.45;;;2.72;;
21894;SDS011;11112;51.270;7.224;2023-07-31T08:29:25;4.60;;;2.70;;
21894;SDS011;11112;51.270;7.224;2023-07-31T08:31:52;5.75;;;2.40;;
21894;SDS011;11112;51.270;7.224;2023-07-31T08:34:20;5.22;;;2.85;;
21894;SDS011;11112;51.270;7.224;2023-07-31T08:36:48;4.70;;;2.63;;
21894;SDS011;11112;51.270;7.224;2023-07-31T08:39:15;6.75;;;2.85;;
21894;SDS011;11112;51.270;7.224;2023-07-31T08:41:42;5.13;;;2.80;;
21894;SDS011;11112;51.270;7.224;2023-07-31T08:44:09;4.85;;;2.42;;
21894;SDS011;11112;51.270;7.224;2023-07-31T08:46:37;4.70;;;2.08;;
21894;SDS011;11112;51.270;7.224;2023-07-31T08:49:05;4.07;;;2.05;;
21894;SDS011;11112;51.270;7.224;2023-07-31T08:51:35;5.28;;;2.30;;
21894;SDS011;11112;51.270;7.224;2023-07-31T08:54:03;4.15;;;2.25;;
21894;SDS011;11112;51.270;7.224;2023-07-31T08:56:30;4.93;;;2.50;;
21894;SDS011;11112;51.270;7.224;2023-07-31T08:58:59;6.05;;;2.53;;
21894;SDS011;11112;51.270;7.224;2023-07-31T09:01:29;5.38;;;2.50;;
21894;SDS011;11112;51.270;7.224;2023-07-31T09:03:57;6.03;;;2.90;;
21894;SDS011;11112;51.270;7.224;2023-07-31T09:06:26;7.03;;;3.00;;
21894;SDS011;11112;51.270;7.224;2023-07-31T09:08:57;6.53;;;2.92;;
21894;SDS011;11112;51.270;7.224;2023-07-31T09:11:24;5.28;;;2.60;;
21894;SDS011;11112;51.270;7.224;2023-07-31T09:13:53;5.07;;;2.60;;
21894;SDS011;11112;51.270;7.224;2023-07-31T09:16:27;4.82;;;2.70;;
21894;SDS011;11112;51.270;7.224;2023-07-31T09:18:57;5.72;;;2.58;;
21894;SDS011;11112;51.270;7.224;2023-07-31T09:21:26;6.97;;;2.80;;
21894;SDS011;11112;51.270;7.224;2023-07-31T09:23:54;4.85;;;2.70;;
21894;SDS011;11112;51.270;7.224;2023-07-31T09:26:33;5.43;;;2.75;;
21894;SDS011;11112;51.270;7.224;2023-07-31T09:29:01;5.53;;;3.03;;
21894;SDS011;11112;51.270;7.224;2023-07-31T09:31:33;7.22;;;2.70;;
21894;SDS011;11112;51.270;7.224;2023-07-31T09:34:06;5.80;;;2.83;;
21894;SDS011;11112;51.270;7.224;2023-07-31T09:36:39;4.32;;;2.60;;
21894;SDS011;11112;51.270;7.224;2023-07-31T09:39:08;4.28;;;2.53;;
21894;SDS011;11112;51.270;7.224;2023-07-31T09:41:38;4.72;;;2.75;;
21894;SDS011;11112;51.270;7.224;2023-07-31T09:44:07;4.65;;;2.70;;
21894;SDS011;11112;51.270;7.224;2023-07-31T09:46:35;5.00;;;2.45;;
21894;SDS011;11112;51.270;7.224;2023-07-31T09:49:03;4.20;;;2.15;;
21894;SDS011;11112;51.270;7.224;2023-07-31T09:51:32;3.92;;;1.92;;
21894;SDS011;11112;51.270;7.224;2023-07-31T09:54:03;4.75;;;2.00;;
21894;SDS011;11112;51.270;7.224;2023-07-31T09:56:36;3.20;;;1.90;;
21894;SDS011;11112;51.270;7.224;2023-07-31T09:59:10;3.13;;;1.88;;
21894;SDS011;11112;51.270;7.224;2023-07-31T10:01:39;5.55;;;2.40;;
21894;SDS011;11112;51.270;7.224;2023-07-31T10:04:07;3.95;;;2.00;;
21894;SDS011;11112;51.270;7.224;2023-07-31T10:06:35;2.53;;;1.50;;
21894;SDS011;11112;51.270;7.224;2023-07-31T10:09:04;2.50;;;1.38;;
21894;SDS011;11112;51.270;7.224;2023-07-31T10:11:34;2.05;;;1.45;;
21894;SDS011;11112;51.270;7.224;2023-07-31T10:14:06;3.60;;;1.63;;
21894;SDS011;11112;51.270;7.224;2023-07-31T10:16:34;2.55;;;1.40;;
21894;SDS011;11112;51.270;7.224;2023-07-31T10:19:04;4.07;;;1.50;;
21894;SDS011;11112;51.270;7.224;2023-07-31T10:21:33;3.88;;;1.55;;
21894;SDS011;11112;51.270;7.224;2023-07-31T10:24:01;2.25;;;1.25;;
21894;SDS011;11112;51.270;7.224;2023-07-31T10:26:31;3.03;;;1.65;;
21894;SDS011;11112;51.270;7.224;2023-07-31T10:28:59;3.03;;;1.52;;
21894;SDS011;11112;51.270;7.224;2023-07-31T10:31:28;3.10;;;1.60;;
21894;SDS011;11112;51.270;7.224;2023-07-31T10:33:55;3.13;;;1.67;;
21894;SDS011;11112;51.270;7.224;2023-07-31T10:36:25;2.60;;;1.60;;
21894;SDS011;11112;51.270;7.224;2023-07-31T10:38:52;1.98;;;1.45;;
21894;SDS011;11112;51.270;7.224;2023-07-31T10:41:27;2.83;;;1.58;;
21894;SDS011;11112;51.270;7.224;2023-07-31T10:43:57;3.38;;;1.60;;
21894;SDS011;11112;51.270;7.224;2023-07-31T10:46:24;2.85;;;1.65;;
21894;SDS011;11112;51.270;7.224;2023-07-31T10:48:58;2.80;;;1.63;;
21894;SDS011;11112;51.270;7.224;2023-07-31T10:51:32;3.63;;;1.60;;
21894;SDS011;11112;51.270;7.224;2023-07-31T10:54:10;3.20;;;1.70;;
21894;SDS011;11112;51.270;7.224;2023-07-31T10:56:38;4.88;;;1.88;;
21894;SDS011;11112;51.270;7.224;2023-07-31T10:59:05;4.25;;;2.60;;
21894;SDS011;11112;51.270;7.224;2023-07-31T11:01:53;4.00;;;2.10;;
21894;SDS011;11112;51.270;7.224;2023-07-31T11:04:22;4.38;;;2.53;;
21894;SDS011;11112;51.270;7.224;2023-07-31T11:06:56;3.92;;;2.13;;
21894;SDS011;11112;51.270;7.224;2023-07-31T11:09:24;5.07;;;2.33;;
21894;SDS011;11112;51.270;7.224;2023-07-31T11:11:56;4.45;;;2.80;;
21894;SDS011;11112;51.270;7.224;2023-07-31T11:14:24;6.18;;;3.00;;
21894;SDS011;11112;51.270;7.224;2023-07-31T11:16:52;5.78;;;2.70;;
21894;SDS011;11112;51.270;7.224;2023-07-31T11:19:22;6.93;;;3.00;;
21894;SDS011;11112;51.270;7.224;2023-07-31T11:21:50;5.78;;;2.50;;
21894;SDS011;11112;51.270;7.224;2023-07-31T11:24:19;6.88;;;2.72;;
21894;SDS011;11112;51.270;7.224;2023-07-31T11:26:49;4.13;;;2.53;;
21894;SDS011;11112;51.270;7.224;2023-07-31T11:29:17;6.72;;;2.50;;
21894;SDS011;11112;51.270;7.224;2023-07-31T11:31:44;6.07;;;2.55;;
21894;SDS011;11112;51.270;7.224;2023-07-31T11:34:14;4.75;;;2.55;;
21894;SDS011;11112;51.270;7.224;2023-07-31T11:36:52;5.70;;;2.50;;
21894;SDS011;11112;51.270;7.224;2023-07-31T11:39:20;6.35;;;2.70;;
21894;SDS011;11112;51.270;7.224;2023-07-31T11:41:48;5.80;;;2.70;;
21894;SDS011;11112;51.270;7.224;2023-07-31T11:44:15;6.25;;;2.60;;
21894;SDS011;11112;51.270;7.224;2023-07-31T11:46:42;6.90;;;2.40;;
21894;SDS011;11112;51.270;7.224;2023-07-31T11:49:09;5.32;;;2.50;;
21894;SDS011;11112;51.270;7.224;2023-07-31T11:51:38;6.65;;;2.65;;
21894;SDS011;11112;51.270;7.224;2023-07-31T11:54:05;8.15;;;2.70;;
21894;SDS011;11112;51.270;7.224;2023-07-31T11:56:33;4.50;;;2.42;;
21894;SDS011;11112;51.270;7.224;2023-07-31T11:59:00;5.00;;;2.30;;
21894;SDS011;11112;51.270;7.224;2023-07-31T12:01:30;3.85;;;2.25;;
21894;SDS011;11112;51.270;7.224;2023-07-31T12:03:57;4.60;;;2.30;;
21894;SDS011;11112;51.270;7.224;2023-07-31T12:06:32;4.25;;;2.03;;
21894;SDS011;11112;51.270;7.224;2023-07-31T12:09:02;4.75;;;2.00;;
21894;SDS011;11112;51.270;7.224;2023-07-31T12:11:30;3.65;;;1.80;;
21894;SDS011;11112;51.270;7.224;2023-07-31T12:13:57;4.90;;;1.90;;
21894;SDS011;11112;51.270;7.224;2023-07-31T12:16:26;3.97;;;2.05;;
21894;SDS011;11112;51.270;7.224;2023-07-31T12:18:54;4.20;;;1.90;;
21894;SDS011;11112;51.270;7.224;2023-07-31T12:21:24;3.13;;;1.75;;
21894;SDS011;11112;51.270;7.224;2023-07-31T12:23:54;3.67;;;1.80;;
21894;SDS011;11112;51.270;7.224;2023-07-31T12:26:23;5.38;;;1.80;;
21894;SDS011;11112;51.270;7.224;2023-07-31T12:29:00;3.63;;;1.65;;
21894;SDS011;11112;51.270;7.224;2023-07-31T12:31:27;5.28;;;1.42;;
21894;SDS011;11112;51.270;7.224;2023-07-31T12:33:55;3.15;;;1.58;;
21894;SDS011;11112;51.270;7.224;2023-07-31T12:36:23;3.03;;;1.73;;
21894;SDS011;11112;51.270;7.224;2023-07-31T12:38:51;3.78;;;1.80;;
21894;SDS011;11112;51.270;7.224;2023-07-31T12:41:22;2.63;;;1.45;;
21894;SDS011;11112;51.270;7.224;2023-07-31T12:43:49;3.10;;;1.50;;
21894;SDS011;11112;51.270;7.224;2023-07-31T12:46:16;3.03;;;1.40;;
21894;SDS011;11112;51.270;7.224;2023-07-31T12:48:43;2.45;;;1.50;;
21894;SDS011;11112;51.270;7.224;2023-07-31T12:51:10;3.42;;;1.52;;
21894;SDS011;11112;51.270;7.224;2023-07-31T12:53:37;5.93;;;1.73;;
21894;SDS011;11112;51.270;7.224;2023-07-31T12:56:04;2.70;;;1.60;;
21894;SDS011;11112;51.270;7.224;2023-07-31T12:58:32;2.85;;;2.00;;
21894;SDS011;11112;51.270;7.224;2023-07-31T13:01:00;2.65;;;1.55;;
21894;SDS011;11112;51.270;7.224;2023-07-31T13:03:27;3.90;;;1.80;;
21894;SDS011;11112;51.270;7.224;2023-07-31T13:05:54;3.05;;;1.85;;
21894;SDS011;11112;51.270;7.224;2023-07-31T13:08:21;3.85;;;2.17;;
21894;SDS011;11112;51.270;7.224;2023-07-31T13:10:48;2.85;;;1.80;;
21894;SDS011;11112;51.270;7.224;2023-07-31T13:13:16;2.95;;;1.70;;
21894;SDS011;11112;51.270;7.224;2023-07-31T13:15:44;3.08;;;1.50;;
21894;SDS011;11112;51.270;7.224;2023-07-31T13:18:11;2.95;;;1.98;;
21894;SDS011;11112;51.270;7.224;2023-07-31T13:20:38;3.65;;;1.70;;
21894;SDS011;11112;51.270;7.224;2023-07-31T13:23:05;4.85;;;1.92;;
21894;SDS011;11112;51.270;7.224;2023-07-31T13:25:32;2.70;;;1.95;;
21894;SDS011;11112;51.270;7.224;2023-07-31T13:27:59;4.82;;;2.00;;
21894;SDS011;11112;51.270;7.224;2023-07-31T13:30:26;2.95;;;1.80;;
21894;SDS011;11112;51.270;7.224;2023-07-31T13:32:55;4.28;;;2.05;;
21894;SDS011;11112;51.270;7.224;2023-07-31T13:35:22;3.83;;;2.10;;
21894;SDS011;11112;51.270;7.224;2023-07-31T13:37:49;5.25;;;2.63;;
21894;SDS011;11112;51.270;7.224;2023-07-31T13:40:16;4.93;;;2.10;;
21894;SDS011;11112;51.270;7.224;2023-07-31T13:42:43;6.35;;;2.58;;
21894;SDS011;11112;51.270;7.224;2023-07-31T13:45:12;4.40;;;2.20;;
21894;SDS011;11112;51.270;7.224;2023-07-31T13:47:39;5.10;;;2.63;;
21894;SDS011;11112;51.270;7.224;2023-07-31T13:50:08;4.97;;;2.63;;
21894;SDS011;11112;51.270;7.224;2023-07-31T13:52:35;4.10;;;2.63;;
21894;SDS011;11112;51.270;7.224;2023-07-31T13:55:03;5.45;;;2.80;;
21894;SDS011;11112;51.270;7.224;2023-07-31T13:57:30;6.28;;;3.10;;
21894;SDS011;11112;51.270;7.224;2023-07-31T13:59:58;5.18;;;2.63;;
21894;SDS011;11112;51.270;7.224;2023-07-31T14:02:25;4.20;;;2.88;;
21894;SDS011;11112;51.270;7.224;2023-07-31T14:04:52;7.18;;;2.80;;
21894;SDS011;11112;51.270;7.224;2023-07-31T14:07:20;6.47;;;2.60;;
21894;SDS011;11112;51.270;7.224;2023-07-31T14:09:47;6.32;;;3.22;;
21894;SDS011;11112;51.270;7.224;2023-07-31T14:12:14;4.35;;;2.72;;
21894;SDS011;11112;51.270;7.224;2023-07-31T14:14:41;4.07;;;3.00;;
21894;SDS011;11112;51.270;7.224;2023-07-31T14:17:08;5.03;;;3.08;;
21894;SDS011;11112;51.270;7.224;2023-07-31T14:19:35;4.60;;;2.80;;
21894;SDS011;11112;51.270;7.224;2023-07-31T14:22:02;4.93;;;2.80;;
21894;SDS011;11112;51.270;7.224;2023-07-31T14:24:31;5.55;;;2.85;;
21894;SDS011;11112;51.270;7.224;2023-07-31T14:26:59;4.50;;;2.97;;
21894;SDS011;11112;51.270;7.224;2023-07-31T14:31:54;5.25;;;2.83;;
21894;SDS011;11112;51.270;7.224;2023-07-31T14:34:21;4.85;;;2.40;;
21894;SDS011;11112;51.270;7.224;2023-07-31T14:36:48;3.67;;;2.40;;
21894;SDS011;11112;51.270;7.224;2023-07-31T14:39:15;4.25;;;2.92;;
21894;SDS011;11112;51.270;7.224;2023-07-31T14:41:44;4.47;;;2.47;;
21894;SDS011;11112;51.270;7.224;2023-07-31T14:44:11;4.63;;;2.72;;
21894;SDS011;11112;51.270;7.224;2023-07-31T14:46:38;4.50;;;2.47;;
21894;SDS011;11112;51.270;7.224;2023-07-31T14:49:05;4.50;;;2.40;;
21894;SDS011;11112;51.270;7.224;2023-07-31T14:51:32;4.80;;;2.30;;
21894;SDS011;11112;51.270;7.224;2023-07-31T14:53:59;4.07;;;2.58;;
21894;SDS011;11112;51.270;7.224;2023-07-31T14:56:26;5.40;;;2.55;;